sensor_id;sensor_type;location;lat;lon;timestamp;P1;durP1;ratioP1;P2;durP2;ratioP2
15595;SDS011;7898;48.658;9.068;2023-03-01T00:01:29;19.90;;;12.27;;
15595;SDS011;7898;48.658;9.068;2023-03-01T00:03:57;20.27;;;11.80;;
15595;SDS011;7898;48.658;9.068;2023-03-01T00:06:25;21.77;;;12.57;;
15595;SDS011;7898;48.658;9.068;2023-03-01T00:08:53;25.03;;;13.63;;
15595;SDS011;7898;48.658;9.068;2023-03-01T00:11:22;20.27;;;11.53;;
15595;SDS011;7898;48.658;9.068;2023-03-01T00:13:51;23.50;;;14.20;;
15595;SDS011;7898;48.658;9.068;2023-03-01T00:16:20;18.93;;;12.03;;
15595;SDS011;7898;48.658;9.068;2023-03-01T00:18:49;25.20;;;13.30;;
15595;SDS011;7898;48.658;9.068;2023-03-01T00:21:16;20.60;;;12.57;;
15595;SDS011;7898;48.658;9.068;2023-03-01T00:23:44;20.37;;;11.93;;
15595;SDS011;7898;48.658;9.068;2023-03-01T00:26:12;20.03;;;12.17;;
15595;SDS011;7898;48.658;9.068;2023-03-01T00:28:41;21.80;;;11.97;;
15595;SDS011;7898;48.658;9.068;2023-03-01T00:31:09;22.17;;;13.60;;
15595;SDS011;7898;48.658;9.068;2023-03-01T00:33:37;19.23;;;12.00;;
15595;SDS011;7898;48.658;9.068;2023-03-01T00:36:05;21.07;;;13.33;;
15595;SDS011;7898;48.658;9.068;2023-03-01T00:38:34;24.27;;;13.33;;
15595;SDS011;7898;48.658;9.068;2023-03-01T00:41:04;24.30;;;13.77;;
15595;SDS011;7898;48.658;9.068;2023-03-01T00:43:34;22.93;;;12.60;;
15595;SDS011;7898;48.658;9.068;2023-03-01T00:46:04;22.10;;;12.90;;
15595;SDS011;7898;48.658;9.068;2023-03-01T00:48:32;19.07;;;11.97;;
15595;SDS011;7898;48.658;9.068;2023-03-01T00:51:04;18.83;;;12.20;;
15595;SDS011;7898;48.658;9.068;2023-03-01T00:53:31;24.67;;;12.67;;
15595;SDS011;7898;48.658;9.068;2023-03-01T00:55:59;22.27;;;13.67;;
15595;SDS011;7898;48.658;9.068;2023-03-01T00:58:26;21.50;;;12.57;;
15595;SDS011;7898;48.658;9.068;2023-03-01T01:00:53;26.37;;;12.83;;
15595;SDS011;7898;48.658;9.068;2023-03-01T01:03:21;19.47;;;11.73;;
15595;SDS011;7898;48.658;9.068;2023-03-01T01:05:49;22.30;;;13.00;;
15595;SDS011;7898;48.658;9.068;2023-03-01T01:08:16;22.10;;;11.90;;
15595;SDS011;7898;48.658;9.068;2023-03-01T01:10:44;22.97;;;12.93;;
15595;SDS011;7898;48.658;9.068;2023-03-01T01:13:11;23.83;;;13.27;;
15595;SDS011;7898;48.658;9.068;2023-03-01T01:15:38;21.83;;;12.87;;
15595;SDS011;7898;48.658;9.068;2023-03-01T01:18:06;21.57;;;12.23;;
15595;SDS011;7898;48.658;9.068;2023-03-01T01:20:34;23.20;;;12.67;;
15595;SDS011;7898;48.658;9.068;2023-03-01T01:23:01;24.33;;;13.60;;
15595;SDS011;7898;48.658;9.068;2023-03-01T01:25:32;19.73;;;11.90;;
15595;SDS011;7898;48.658;9.068;2023-03-01T01:28:00;22.07;;;12.93;;
15595;SDS011;7898;48.658;9.068;2023-03-01T01:30:27;18.67;;;11.67;;
15595;SDS011;7898;48.658;9.068;2023-03-01T01:32:54;19.17;;;12.17;;
15595;SDS011;7898;48.658;9.068;2023-03-01T01:35:21;22.83;;;12.53;;
15595;SDS011;7898;48.658;9.068;2023-03-01T01:37:49;26.23;;;13.43;;
15595;SDS011;7898;48.658;9.068;2023-03-01T01:40:16;23.33;;;13.30;;
15595;SDS011;7898;48.658;9.068;2023-03-01T01:42:43;18.33;;;12.83;;
15595;SDS011;7898;48.658;9.068;2023-03-01T01:45:27;22.67;;;12.77;;
15595;SDS011;7898;48.658;9.068;2023-03-01T01:47:58;21.23;;;12.80;;
15595;SDS011;7898;48.658;9.068;2023-03-01T01:50:28;21.97;;;13.10;;
15595;SDS011;7898;48.658;9.068;2023-03-01T01:53:04;29.37;;;13.33;;
15595;SDS011;7898;48.658;9.068;2023-03-01T01:55:34;21.57;;;11.93;;
15595;SDS011;7898;48.658;9.068;2023-03-01T01:58:04;25.23;;;13.23;;
15595;SDS011;7898;48.658;9.068;2023-03-01T02:00:33;23.03;;;12.97;;
15595;SDS011;7898;48.658;9.068;2023-03-01T02:03:02;23.93;;;13.23;;
15595;SDS011;7898;48.658;9.068;2023-03-01T02:05:33;24.33;;;12.80;;
15595;SDS011;7898;48.658;9.068;2023-03-01T02:08:07;23.23;;;13.80;;
15595;SDS011;7898;48.658;9.068;2023-03-01T02:10:36;24.80;;;13.17;;
15595;SDS011;7898;48.658;9.068;2023-03-01T02:13:04;22.63;;;12.73;;
15595;SDS011;7898;48.658;9.068;2023-03-01T02:15:32;21.50;;;13.97;;
15595;SDS011;7898;48.658;9.068;2023-03-01T02:18:01;22.37;;;13.23;;
15595;SDS011;7898;48.658;9.068;2023-03-01T02:20:31;23.97;;;12.53;;
15595;SDS011;7898;48.658;9.068;2023-03-01T02:23:07;22.57;;;13.50;;
15595;SDS011;7898;48.658;9.068;2023-03-01T02:25:38;22.97;;;12.70;;
15595;SDS011;7898;48.658;9.068;2023-03-01T02:28:18;25.13;;;13.83;;
15595;SDS011;7898;48.658;9.068;2023-03-01T02:30:48;21.43;;;13.10;;
15595;SDS011;7898;48.658;9.068;2023-03-01T02:33:34;23.53;;;13.20;;
15595;SDS011;7898;48.658;9.068;2023-03-01T02:36:03;24.27;;;13.60;;
15595;SDS011;7898;48.658;9.068;2023-03-01T02:38:33;22.67;;;13.40;;
15595;SDS011;7898;48.658;9.068;2023-03-01T02:41:00;23.07;;;13.40;;
15595;SDS011;7898;48.658;9.068;2023-03-01T02:43:31;22.57;;;12.67;;
15595;SDS011;7898;48.658;9.068;2023-03-01T02:46:01;22.13;;;13.23;;
15595;SDS011;7898;48.658;9.068;2023-03-01T02:48:38;21.30;;;13.10;;
15595;SDS011;7898;48.658;9.068;2023-03-01T02:51:08;21.60;;;13.23;;
15595;SDS011;7898;48.658;9.068;2023-03-01T02:53:41;24.53;;;14.37;;
15595;SDS011;7898;48.658;9.068;2023-03-01T02:56:19;20.63;;;12.60;;
15595;SDS011;7898;48.658;9.068;2023-03-01T02:58:48;23.93;;;13.33;;
15595;SDS011;7898;48.658;9.068;2023-03-01T03:01:16;22.80;;;13.33;;
15595;SDS011;7898;48.658;9.068;2023-03-01T03:03:44;23.53;;;13.63;;
15595;SDS011;7898;48.658;9.068;2023-03-01T03:06:11;19.90;;;12.03;;
15595;SDS011;7898;48.658;9.068;2023-03-01T03:08:38;23.83;;;13.50;;
15595;SDS011;7898;48.658;9.068;2023-03-01T03:11:05;25.07;;;14.00;;
15595;SDS011;7898;48.658;9.068;2023-03-01T03:13:32;25.23;;;14.93;;
15595;SDS011;7898;48.658;9.068;2023-03-01T03:16:01;23.53;;;13.50;;
15595;SDS011;7898;48.658;9.068;2023-03-01T03:18:29;21.53;;;13.30;;
15595;SDS011;7898;48.658;9.068;2023-03-01T03:20:56;22.50;;;13.70;;
15595;SDS011;7898;48.658;9.068;2023-03-01T03:23:23;23.37;;;13.53;;
15595;SDS011;7898;48.658;9.068;2023-03-01T03:25:50;20.80;;;13.57;;
15595;SDS011;7898;48.658;9.068;2023-03-01T03:28:18;27.23;;;13.37;;
15595;SDS011;7898;48.658;9.068;2023-03-01T03:30:45;23.13;;;14.63;;
15595;SDS011;7898;48.658;9.068;2023-03-01T03:33:13;27.03;;;14.53;;
15595;SDS011;7898;48.658;9.068;2023-03-01T03:35:41;20.87;;;12.87;;
15595;SDS011;7898;48.658;9.068;2023-03-01T03:38:09;22.50;;;13.20;;
15595;SDS011;7898;48.658;9.068;2023-03-01T03:40:43;23.60;;;13.57;;
15595;SDS011;7898;48.658;9.068;2023-03-01T03:43:11;22.60;;;13.63;;
15595;SDS011;7898;48.658;9.068;2023-03-01T03:45:40;24.47;;;12.63;;
15595;SDS011;7898;48.658;9.068;2023-03-01T03:48:07;26.77;;;14.80;;
15595;SDS011;7898;48.658;9.068;2023-03-01T03:50:39;23.50;;;14.17;;
15595;SDS011;7898;48.658;9.068;2023-03-01T03:53:09;25.00;;;14.57;;
15595;SDS011;7898;48.658;9.068;2023-03-01T03:55:38;22.97;;;13.47;;
15595;SDS011;7898;48.658;9.068;2023-03-01T03:58:06;23.50;;;13.90;;
15595;SDS011;7898;48.658;9.068;2023-03-01T04:00:34;23.17;;;13.70;;
15595;SDS011;7898;48.658;9.068;2023-03-01T04:03:02;24.30;;;14.70;;
15595;SDS011;7898;48.658;9.068;2023-03-01T04:05:29;21.50;;;13.40;;
15595;SDS011;7898;48.658;9.068;2023-03-01T04:07:58;25.70;;;14.63;;
15595;SDS011;7898;48.658;9.068;2023-03-01T04:10:32;22.90;;;13.70;;
15595;SDS011;7898;48.658;9.068;2023-03-01T04:13:01;26.70;;;15.03;;
15595;SDS011;7898;48.658;9.068;2023-03-01T04:15:28;26.30;;;14.60;;
15595;SDS011;7898;48.658;9.068;2023-03-01T04:17:55;25.17;;;14.73;;
15595;SDS011;7898;48.658;9.068;2023-03-01T04:20:22;26.43;;;14.10;;
15595;SDS011;7898;48.658;9.068;2023-03-01T04:22:52;25.63;;;14.33;;
15595;SDS011;7898;48.658;9.068;2023-03-01T04:25:24;26.50;;;14.87;;
15595;SDS011;7898;48.658;9.068;2023-03-01T04:27:52;33.50;;;15.53;;
15595;SDS011;7898;48.658;9.068;2023-03-01T04:30:19;24.67;;;14.97;;
15595;SDS011;7898;48.658;9.068;2023-03-01T04:32:50;25.53;;;15.10;;
15595;SDS011;7898;48.658;9.068;2023-03-01T04:35:17;25.63;;;14.57;;
15595;SDS011;7898;48.658;9.068;2023-03-01T04:37:44;26.17;;;14.53;;
15595;SDS011;7898;48.658;9.068;2023-03-01T04:40:11;25.33;;;14.47;;
15595;SDS011;7898;48.658;9.068;2023-03-01T04:42:42;19.10;;;12.43;;
15595;SDS011;7898;48.658;9.068;2023-03-01T04:45:12;24.37;;;15.20;;
15595;SDS011;7898;48.658;9.068;2023-03-01T04:47:40;23.73;;;14.47;;
15595;SDS011;7898;48.658;9.068;2023-03-01T04:50:08;26.60;;;14.93;;
15595;SDS011;7898;48.658;9.068;2023-03-01T04:52:36;25.10;;;14.67;;
15595;SDS011;7898;48.658;9.068;2023-03-01T04:55:04;24.57;;;14.37;;
15595;SDS011;7898;48.658;9.068;2023-03-01T04:57:32;22.03;;;14.10;;
15595;SDS011;7898;48.658;9.068;2023-03-01T05:00:00;23.70;;;14.03;;
15595;SDS011;7898;48.658;9.068;2023-03-01T05:02:44;25.23;;;14.63;;
15595;SDS011;7898;48.658;9.068;2023-03-01T05:05:13;25.17;;;14.27;;
15595;SDS011;7898;48.658;9.068;2023-03-01T05:07:40;25.07;;;14.47;;
15595;SDS011;7898;48.658;9.068;2023-03-01T05:10:07;24.97;;;13.77;;
15595;SDS011;7898;48.658;9.068;2023-03-01T05:12:35;25.13;;;14.90;;
15595;SDS011;7898;48.658;9.068;2023-03-01T05:15:04;24.37;;;13.60;;
15595;SDS011;7898;48.658;9.068;2023-03-01T05:17:32;24.10;;;14.43;;
15595;SDS011;7898;48.658;9.068;2023-03-01T05:20:00;26.83;;;14.67;;
15595;SDS011;7898;48.658;9.068;2023-03-01T05:22:30;28.40;;;15.53;;
15595;SDS011;7898;48.658;9.068;2023-03-01T05:24:57;27.07;;;15.50;;
15595;SDS011;7898;48.658;9.068;2023-03-01T05:27:24;26.00;;;15.50;;
15595;SDS011;7898;48.658;9.068;2023-03-01T05:29:51;25.10;;;15.80;;
15595;SDS011;7898;48.658;9.068;2023-03-01T05:32:19;24.73;;;15.33;;
15595;SDS011;7898;48.658;9.068;2023-03-01T05:34:46;28.97;;;16.33;;
15595;SDS011;7898;48.658;9.068;2023-03-01T05:37:13;24.17;;;15.13;;
15595;SDS011;7898;48.658;9.068;2023-03-01T05:39:43;24.83;;;14.67;;
15595;SDS011;7898;48.658;9.068;2023-03-01T05:42:10;28.97;;;14.67;;
15595;SDS011;7898;48.658;9.068;2023-03-01T05:44:37;27.50;;;15.47;;
15595;SDS011;7898;48.658;9.068;2023-03-01T05:47:05;23.80;;;14.17;;
15595;SDS011;7898;48.658;9.068;2023-03-01T05:49:33;26.53;;;14.87;;
15595;SDS011;7898;48.658;9.068;2023-03-01T05:52:00;27.10;;;15.30;;
15595;SDS011;7898;48.658;9.068;2023-03-01T05:54:27;27.00;;;15.53;;
15595;SDS011;7898;48.658;9.068;2023-03-01T05:56:54;28.27;;;15.83;;
15595;SDS011;7898;48.658;9.068;2023-03-01T05:59:21;26.90;;;15.40;;
15595;SDS011;7898;48.658;9.068;2023-03-01T06:01:48;28.13;;;15.50;;
15595;SDS011;7898;48.658;9.068;2023-03-01T06:04:15;27.47;;;15.37;;
15595;SDS011;7898;48.658;9.068;2023-03-01T06:06:43;27.60;;;15.70;;
15595;SDS011;7898;48.658;9.068;2023-03-01T06:09:10;28.77;;;16.33;;
15595;SDS011;7898;48.658;9.068;2023-03-01T06:11:37;31.63;;;15.60;;
15595;SDS011;7898;48.658;9.068;2023-03-01T06:14:04;25.57;;;15.20;;
15595;SDS011;7898;48.658;9.068;2023-03-01T06:16:33;29.67;;;15.43;;
15595;SDS011;7898;48.658;9.068;2023-03-01T06:18:59;27.07;;;14.67;;
15595;SDS011;7898;48.658;9.068;2023-03-01T06:21:26;27.70;;;14.93;;
15595;SDS011;7898;48.658;9.068;2023-03-01T06:23:55;27.43;;;15.10;;
15595;SDS011;7898;48.658;9.068;2023-03-01T06:26:22;24.73;;;15.83;;
15595;SDS011;7898;48.658;9.068;2023-03-01T06:28:48;24.90;;;14.67;;
15595;SDS011;7898;48.658;9.068;2023-03-01T06:31:15;30.37;;;16.63;;
15595;SDS011;7898;48.658;9.068;2023-03-01T06:33:42;28.97;;;16.50;;
15595;SDS011;7898;48.658;9.068;2023-03-01T06:36:10;25.50;;;15.20;;
15595;SDS011;7898;48.658;9.068;2023-03-01T06:38:43;25.93;;;15.67;;
15595;SDS011;7898;48.658;9.068;2023-03-01T06:41:12;24.90;;;14.63;;
15595;SDS011;7898;48.658;9.068;2023-03-01T06:43:39;28.13;;;15.47;;
15595;SDS011;7898;48.658;9.068;2023-03-01T06:46:06;28.10;;;15.57;;
15595;SDS011;7898;48.658;9.068;2023-03-01T06:48:33;27.93;;;15.40;;
15595;SDS011;7898;48.658;9.068;2023-03-01T06:51:00;25.63;;;15.53;;
15595;SDS011;7898;48.658;9.068;2023-03-01T06:53:27;28.07;;;16.00;;
15595;SDS011;7898;48.658;9.068;2023-03-01T06:55:55;23.63;;;14.97;;
15595;SDS011;7898;48.658;9.068;2023-03-01T06:58:23;26.07;;;15.80;;
15595;SDS011;7898;48.658;9.068;2023-03-01T07:00:50;24.10;;;15.13;;
15595;SDS011;7898;48.658;9.068;2023-03-01T07:03:18;23.43;;;15.00;;
15595;SDS011;7898;48.658;9.068;2023-03-01T07:05:45;20.50;;;14.53;;
15595;SDS011;7898;48.658;9.068;2023-03-01T07:08:16;24.13;;;15.00;;
15595;SDS011;7898;48.658;9.068;2023-03-01T07:10:43;23.00;;;15.03;;
15595;SDS011;7898;48.658;9.068;2023-03-01T07:13:13;24.77;;;16.00;;
15595;SDS011;7898;48.658;9.068;2023-03-01T07:15:41;23.47;;;15.63;;
15595;SDS011;7898;48.658;9.068;2023-03-01T07:18:08;23.23;;;15.07;;
15595;SDS011;7898;48.658;9.068;2023-03-01T07:20:38;24.43;;;16.10;;
15595;SDS011;7898;48.658;9.068;2023-03-01T07:23:05;23.30;;;15.60;;
15595;SDS011;7898;48.658;9.068;2023-03-01T07:25:32;23.73;;;16.03;;
15595;SDS011;7898;48.658;9.068;2023-03-01T07:28:00;23.77;;;16.40;;
15595;SDS011;7898;48.658;9.068;2023-03-01T07:30:27;22.73;;;16.37;;
15595;SDS011;7898;48.658;9.068;2023-03-01T07:33:16;27.53;;;17.03;;
15595;SDS011;7898;48.658;9.068;2023-03-01T07:35:48;24.17;;;16.50;;
15595;SDS011;7898;48.658;9.068;2023-03-01T07:38:24;25.58;;;19.88;;
15595;SDS011;7898;48.658;9.068;2023-03-01T07:40:51;24.63;;;17.20;;
15595;SDS011;7898;48.658;9.068;2023-03-01T07:43:18;22.73;;;16.87;;
15595;SDS011;7898;48.658;9.068;2023-03-01T07:45:45;23.70;;;17.17;;
15595;SDS011;7898;48.658;9.068;2023-03-01T07:48:12;21.80;;;16.33;;
15595;SDS011;7898;48.658;9.068;2023-03-01T07:50:40;23.10;;;16.40;;
15595;SDS011;7898;48.658;9.068;2023-03-01T07:53:08;20.93;;;15.47;;
15595;SDS011;7898;48.658;9.068;2023-03-01T07:55:36;23.53;;;16.70;;
15595;SDS011;7898;48.658;9.068;2023-03-01T07:58:03;24.53;;;16.37;;
15595;SDS011;7898;48.658;9.068;2023-03-01T08:00:30;23.10;;;16.50;;
15595;SDS011;7898;48.658;9.068;2023-03-01T08:02:58;23.63;;;16.40;;
15595;SDS011;7898;48.658;9.068;2023-03-01T08:05:27;24.93;;;16.67;;
15595;SDS011;7898;48.658;9.068;2023-03-01T08:07:55;23.33;;;17.23;;
15595;SDS011;7898;48.658;9.068;2023-03-01T08:10:22;26.33;;;17.20;;
15595;SDS011;7898;48.658;9.068;2023-03-01T08:12:50;23.73;;;17.03;;
15595;SDS011;7898;48.658;9.068;2023-03-01T08:15:18;24.67;;;17.23;;
15595;SDS011;7898;48.658;9.068;2023-03-01T08:17:46;24.57;;;17.27;;
15595;SDS011;7898;48.658;9.068;2023-03-01T08:20:15;24.03;;;16.83;;
15595;SDS011;7898;48.658;9.068;2023-03-01T08:22:44;23.43;;;16.73;;
15595;SDS011;7898;48.658;9.068;2023-03-01T08:25:11;26.80;;;17.50;;
15595;SDS011;7898;48.658;9.068;2023-03-01T08:27:38;24.67;;;17.53;;
15595;SDS011;7898;48.658;9.068;2023-03-01T08:30:05;23.77;;;17.50;;
15595;SDS011;7898;48.658;9.068;2023-03-01T08:32:35;20.00;;;12.77;;
15595;SDS011;7898;48.658;9.068;2023-03-01T08:35:03;24.73;;;17.97;;
15595;SDS011;7898;48.658;9.068;2023-03-01T08:37:31;26.07;;;18.17;;
15595;SDS011;7898;48.658;9.068;2023-03-01T08:39:59;23.07;;;16.80;;
15595;SDS011;7898;48.658;9.068;2023-03-01T08:42:28;25.23;;;18.53;;
15595;SDS011;7898;48.658;9.068;2023-03-01T08:44:55;24.23;;;16.63;;
15595;SDS011;7898;48.658;9.068;2023-03-01T08:47:22;23.53;;;17.73;;
15595;SDS011;7898;48.658;9.068;2023-03-01T08:49:49;24.93;;;18.40;;
15595;SDS011;7898;48.658;9.068;2023-03-01T08:52:18;25.87;;;18.30;;
15595;SDS011;7898;48.658;9.068;2023-03-01T08:54:47;25.83;;;17.83;;
15595;SDS011;7898;48.658;9.068;2023-03-01T08:57:15;25.97;;;17.90;;
15595;SDS011;7898;48.658;9.068;2023-03-01T08:59:42;24.13;;;18.50;;
15595;SDS011;7898;48.658;9.068;2023-03-01T09:02:11;23.63;;;17.77;;
15595;SDS011;7898;48.658;9.068;2023-03-01T09:04:39;21.37;;;17.03;;
15595;SDS011;7898;48.658;9.068;2023-03-01T09:07:07;22.57;;;16.70;;
15595;SDS011;7898;48.658;9.068;2023-03-01T09:09:34;23.63;;;16.63;;
15595;SDS011;7898;48.658;9.068;2023-03-01T09:12:02;23.93;;;16.77;;
15595;SDS011;7898;48.658;9.068;2023-03-01T09:14:31;21.90;;;17.07;;
15595;SDS011;7898;48.658;9.068;2023-03-01T09:16:59;22.40;;;17.87;;
15595;SDS011;7898;48.658;9.068;2023-03-01T09:19:28;23.87;;;17.63;;
15595;SDS011;7898;48.658;9.068;2023-03-01T09:21:55;25.40;;;17.93;;
15595;SDS011;7898;48.658;9.068;2023-03-01T09:24:23;24.80;;;18.27;;
15595;SDS011;7898;48.658;9.068;2023-03-01T09:26:52;26.23;;;18.40;;
15595;SDS011;7898;48.658;9.068;2023-03-01T09:29:20;23.50;;;17.67;;
15595;SDS011;7898;48.658;9.068;2023-03-01T09:31:49;26.87;;;17.20;;
15595;SDS011;7898;48.658;9.068;2023-03-01T09:34:16;26.97;;;17.90;;
15595;SDS011;7898;48.658;9.068;2023-03-01T09:36:48;24.73;;;17.10;;
15595;SDS011;7898;48.658;9.068;2023-03-01T09:39:15;23.00;;;17.30;;
15595;SDS011;7898;48.658;9.068;2023-03-01T09:41:44;23.30;;;17.17;;
15595;SDS011;7898;48.658;9.068;2023-03-01T09:44:26;20.90;;;13.03;;
15595;SDS011;7898;48.658;9.068;2023-03-01T09:46:58;18.57;;;10.20;;
15595;SDS011;7898;48.658;9.068;2023-03-01T09:49:26;20.60;;;13.40;;
15595;SDS011;7898;48.658;9.068;2023-03-01T09:51:56;24.53;;;15.13;;
15595;SDS011;7898;48.658;9.068;2023-03-01T09:54:26;18.43;;;11.30;;
15595;SDS011;7898;48.658;9.068;2023-03-01T09:56:57;19.03;;;12.50;;
15595;SDS011;7898;48.658;9.068;2023-03-01T09:59:33;27.33;;;15.23;;
15595;SDS011;7898;48.658;9.068;2023-03-01T10:02:17;24.53;;;15.50;;
15595;SDS011;7898;48.658;9.068;2023-03-01T10:04:53;24.40;;;15.53;;
15595;SDS011;7898;48.658;9.068;2023-03-01T10:07:29;22.90;;;15.30;;
15595;SDS011;7898;48.658;9.068;2023-03-01T10:10:04;24.27;;;15.93;;
15595;SDS011;7898;48.658;9.068;2023-03-01T10:12:33;12.93;;;7.70;;
15595;SDS011;7898;48.658;9.068;2023-03-01T10:15:05;27.33;;;16.03;;
15595;SDS011;7898;48.658;9.068;2023-03-01T10:17:39;24.23;;;16.03;;
15595;SDS011;7898;48.658;9.068;2023-03-01T10:20:17;23.03;;;15.50;;
15595;SDS011;7898;48.658;9.068;2023-03-01T10:22:46;22.20;;;14.93;;
15595;SDS011;7898;48.658;9.068;2023-03-01T10:25:17;24.67;;;15.87;;
15595;SDS011;7898;48.658;9.068;2023-03-01T10:27:59;24.00;;;15.57;;
15595;SDS011;7898;48.658;9.068;2023-03-01T10:30:32;21.27;;;14.93;;
15595;SDS011;7898;48.658;9.068;2023-03-01T10:33:05;24.30;;;16.27;;
15595;SDS011;7898;48.658;9.068;2023-03-01T10:35:40;22.83;;;15.27;;
15595;SDS011;7898;48.658;9.068;2023-03-01T10:38:08;27.17;;;16.03;;
15595;SDS011;7898;48.658;9.068;2023-03-01T10:40:50;24.23;;;16.03;;
15595;SDS011;7898;48.658;9.068;2023-03-01T10:43:19;25.73;;;15.73;;
15595;SDS011;7898;48.658;9.068;2023-03-01T10:45:47;25.67;;;15.13;;
15595;SDS011;7898;48.658;9.068;2023-03-01T10:48:16;18.47;;;9.57;;
15595;SDS011;7898;48.658;9.068;2023-03-01T10:50:48;10.60;;;6.33;;
15595;SDS011;7898;48.658;9.068;2023-03-01T10:53:21;22.57;;;13.80;;
15595;SDS011;7898;48.658;9.068;2023-03-01T10:55:58;23.43;;;15.53;;
15595;SDS011;7898;48.658;9.068;2023-03-01T10:58:28;20.60;;;13.47;;
15595;SDS011;7898;48.658;9.068;2023-03-01T11:00:56;17.87;;;11.23;;
15595;SDS011;7898;48.658;9.068;2023-03-01T11:03:27;23.70;;;14.13;;
15595;SDS011;7898;48.658;9.068;2023-03-01T11:06:05;17.60;;;11.03;;
15595;SDS011;7898;48.658;9.068;2023-03-01T11:08:47;26.53;;;16.27;;
15595;SDS011;7898;48.658;9.068;2023-03-01T11:11:20;23.90;;;14.77;;
15595;SDS011;7898;48.658;9.068;2023-03-01T11:13:54;21.43;;;13.33;;
15595;SDS011;7898;48.658;9.068;2023-03-01T11:16:27;20.23;;;12.90;;
15595;SDS011;7898;48.658;9.068;2023-03-01T11:19:03;22.80;;;15.20;;
15595;SDS011;7898;48.658;9.068;2023-03-01T11:21:41;25.13;;;16.67;;
15595;SDS011;7898;48.658;9.068;2023-03-01T11:24:14;23.53;;;15.40;;
15595;SDS011;7898;48.658;9.068;2023-03-01T11:26:44;26.37;;;16.27;;
15595;SDS011;7898;48.658;9.068;2023-03-01T11:29:18;24.57;;;14.73;;
15595;SDS011;7898;48.658;9.068;2023-03-01T11:31:53;23.50;;;16.10;;
15595;SDS011;7898;48.658;9.068;2023-03-01T11:34:28;23.90;;;16.40;;
15595;SDS011;7898;48.658;9.068;2023-03-01T11:37:07;24.70;;;15.73;;
15595;SDS011;7898;48.658;9.068;2023-03-01T11:39:58;22.83;;;15.17;;
15595;SDS011;7898;48.658;9.068;2023-03-01T11:42:39;20.60;;;12.57;;
15595;SDS011;7898;48.658;9.068;2023-03-01T11:45:23;24.40;;;14.37;;
15595;SDS011;7898;48.658;9.068;2023-03-01T11:48:00;23.00;;;14.73;;
15595;SDS011;7898;48.658;9.068;2023-03-01T11:54:01;25.13;;;15.60;;
15595;SDS011;7898;48.658;9.068;2023-03-01T11:56:35;22.53;;;15.53;;
15595;SDS011;7898;48.658;9.068;2023-03-01T11:59:19;22.60;;;15.10;;
15595;SDS011;7898;48.658;9.068;2023-03-01T12:02:18;28.40;;;16.27;;
15595;SDS011;7898;48.658;9.068;2023-03-01T12:05:03;26.07;;;16.10;;
15595;SDS011;7898;48.658;9.068;2023-03-01T12:07:52;25.50;;;15.80;;
15595;SDS011;7898;48.658;9.068;2023-03-01T12:10:26;25.23;;;16.20;;
15595;SDS011;7898;48.658;9.068;2023-03-01T12:12:58;25.47;;;16.37;;
15595;SDS011;7898;48.658;9.068;2023-03-01T12:15:49;23.23;;;16.20;;
15595;SDS011;7898;48.658;9.068;2023-03-01T12:21:46;26.33;;;15.97;;
15595;SDS011;7898;48.658;9.068;2023-03-01T12:24:33;23.07;;;16.50;;
15595;SDS011;7898;48.658;9.068;2023-03-01T12:27:19;25.87;;;16.37;;
15595;SDS011;7898;48.658;9.068;2023-03-01T12:30:10;25.37;;;17.00;;
15595;SDS011;7898;48.658;9.068;2023-03-01T12:32:53;24.77;;;15.60;;
15595;SDS011;7898;48.658;9.068;2023-03-01T12:35:34;24.10;;;15.53;;
15595;SDS011;7898;48.658;9.068;2023-03-01T12:38:14;24.43;;;15.70;;
15595;SDS011;7898;48.658;9.068;2023-03-01T12:41:01;23.80;;;16.17;;
15595;SDS011;7898;48.658;9.068;2023-03-01T12:43:54;25.20;;;16.30;;
15595;SDS011;7898;48.658;9.068;2023-03-01T12:46:41;22.83;;;15.90;;
15595;SDS011;7898;48.658;9.068;2023-03-01T12:49:30;26.70;;;16.23;;
15595;SDS011;7898;48.658;9.068;2023-03-01T12:52:02;23.57;;;16.10;;
15595;SDS011;7898;48.658;9.068;2023-03-01T12:54:41;22.10;;;14.50;;
15595;SDS011;7898;48.658;9.068;2023-03-01T12:57:12;21.43;;;15.13;;
15595;SDS011;7898;48.658;9.068;2023-03-01T12:59:47;20.63;;;15.07;;
15595;SDS011;7898;48.658;9.068;2023-03-01T13:02:33;24.07;;;14.60;;
15595;SDS011;7898;48.658;9.068;2023-03-01T13:05:07;23.40;;;15.77;;
15595;SDS011;7898;48.658;9.068;2023-03-01T13:07:50;21.37;;;15.00;;
15595;SDS011;7898;48.658;9.068;2023-03-01T13:10:24;20.93;;;15.17;;
15595;SDS011;7898;48.658;9.068;2023-03-01T13:15:45;22.37;;;14.93;;
15595;SDS011;7898;48.658;9.068;2023-03-01T13:18:29;19.90;;;14.37;;
15595;SDS011;7898;48.658;9.068;2023-03-01T13:20:58;22.83;;;15.03;;
15595;SDS011;7898;48.658;9.068;2023-03-01T13:23:28;18.63;;;13.17;;
15595;SDS011;7898;48.658;9.068;2023-03-01T13:26:02;20.07;;;14.20;;
15595;SDS011;7898;48.658;9.068;2023-03-01T13:28:45;21.80;;;14.20;;
15595;SDS011;7898;48.658;9.068;2023-03-01T13:34:39;21.17;;;14.87;;
15595;SDS011;7898;48.658;9.068;2023-03-01T13:37:09;20.93;;;13.33;;
15595;SDS011;7898;48.658;9.068;2023-03-01T13:39:38;19.40;;;14.43;;
15595;SDS011;7898;48.658;9.068;2023-03-01T13:45:04;24.13;;;13.87;;
15595;SDS011;7898;48.658;9.068;2023-03-01T13:47:56;21.17;;;14.13;;
15595;SDS011;7898;48.658;9.068;2023-03-01T13:50:27;21.63;;;14.23;;
15595;SDS011;7898;48.658;9.068;2023-03-01T13:52:56;19.50;;;14.63;;
15595;SDS011;7898;48.658;9.068;2023-03-01T13:55:27;21.23;;;14.60;;
15595;SDS011;7898;48.658;9.068;2023-03-01T13:58:02;19.03;;;13.33;;
15595;SDS011;7898;48.658;9.068;2023-03-01T14:00:42;20.90;;;14.33;;
15595;SDS011;7898;48.658;9.068;2023-03-01T14:03:10;18.23;;;12.50;;
15595;SDS011;7898;48.658;9.068;2023-03-01T14:05:39;24.10;;;15.03;;
15595;SDS011;7898;48.658;9.068;2023-03-01T14:08:21;18.57;;;13.90;;
15595;SDS011;7898;48.658;9.068;2023-03-01T14:10:57;19.17;;;12.60;;
15595;SDS011;7898;48.658;9.068;2023-03-01T14:13:43;18.13;;;12.10;;
15595;SDS011;7898;48.658;9.068;2023-03-01T14:16:24;18.53;;;12.87;;
15595;SDS011;7898;48.658;9.068;2023-03-01T14:19:04;19.17;;;13.70;;
15595;SDS011;7898;48.658;9.068;2023-03-01T14:21:41;19.57;;;13.90;;
15595;SDS011;7898;48.658;9.068;2023-03-01T14:24:15;19.60;;;12.87;;
15595;SDS011;7898;48.658;9.068;2023-03-01T14:26:44;17.37;;;12.30;;
15595;SDS011;7898;48.658;9.068;2023-03-01T14:29:25;17.63;;;12.07;;
15595;SDS011;7898;48.658;9.068;2023-03-01T14:31:54;22.97;;;13.57;;
15595;SDS011;7898;48.658;9.068;2023-03-01T14:34:22;18.50;;;12.80;;
15595;SDS011;7898;48.658;9.068;2023-03-01T14:36:51;21.97;;;15.63;;
15595;SDS011;7898;48.658;9.068;2023-03-01T14:39:19;20.90;;;14.67;;
15595;SDS011;7898;48.658;9.068;2023-03-01T14:41:50;23.53;;;15.33;;
15595;SDS011;7898;48.658;9.068;2023-03-01T14:44:19;25.43;;;16.70;;
15595;SDS011;7898;48.658;9.068;2023-03-01T14:46:51;23.60;;;15.93;;
15595;SDS011;7898;48.658;9.068;2023-03-01T14:49:22;27.03;;;17.37;;
15595;SDS011;7898;48.658;9.068;2023-03-01T14:51:52;26.47;;;16.30;;
15595;SDS011;7898;48.658;9.068;2023-03-01T14:54:23;23.83;;;16.43;;
15595;SDS011;7898;48.658;9.068;2023-03-01T14:56:53;22.17;;;15.80;;
15595;SDS011;7898;48.658;9.068;2023-03-01T14:59:24;25.40;;;17.10;;
15595;SDS011;7898;48.658;9.068;2023-03-01T15:01:51;20.83;;;15.07;;
15595;SDS011;7898;48.658;9.068;2023-03-01T15:04:23;25.07;;;17.37;;
15595;SDS011;7898;48.658;9.068;2023-03-01T15:06:51;22.97;;;15.23;;
15595;SDS011;7898;48.658;9.068;2023-03-01T15:09:19;23.57;;;16.53;;
15595;SDS011;7898;48.658;9.068;2023-03-01T15:11:47;25.17;;;16.50;;
15595;SDS011;7898;48.658;9.068;2023-03-01T15:14:27;21.40;;;15.60;;